sensor_id;sensor_type;location;lat;lon;timestamp;temperature;humidity
20066;DHT22;10193;48.884;9.182;2023-04-24T00:01:19;14.00;66.20
20066;DHT22;10193;48.884;9.182;2023-04-24T00:03:45;14.00;65.90
20066;DHT22;10193;48.884;9.182;2023-04-24T00:06:12;14.00;66.00
20066;DHT22;10193;48.884;9.182;2023-04-24T00:08:39;14.00;66.10
20066;DHT22;10193;48.884;9.182;2023-04-24T00:11:05;14.00;66.20
20066;DHT22;10193;48.884;9.182;2023-04-24T00:13:33;14.00;66.10
20066;DHT22;10193;48.884;9.182;2023-04-24T00:16:00;14.10;66.30
20066;DHT22;10193;48.884;9.182;2023-04-24T00:18:27;14.10;66.30
20066;DHT22;10193;48.884;9.182;2023-04-24T00:20:54;14.10;66.20
20066;DHT22;10193;48.884;9.182;2023-04-24T00:23:20;14.20;66.20
20066;DHT22;10193;48.884;9.182;2023-04-24T00:25:47;14.20;66.10
20066;DHT22;10193;48.884;9.182;2023-04-24T00:28:14;14.20;66.10
20066;DHT22;10193;48.884;9.182;2023-04-24T00:30:42;14.20;66.10
20066;DHT22;10193;48.884;9.182;2023-04-24T00:33:08;14.20;66.10
20066;DHT22;10193;48.884;9.182;2023-04-24T00:35:35;14.30;66.20
20066;DHT22;10193;48.884;9.182;2023-04-24T00:38:02;14.30;66.20
20066;DHT22;10193;48.884;9.182;2023-04-24T00:40:29;14.30;66.10
20066;DHT22;10193;48.884;9.182;2023-04-24T00:42:56;14.30;66.10
20066;DHT22;10193;48.884;9.182;2023-04-24T00:45:22;14.30;66.10
20066;DHT22;10193;48.884;9.182;2023-04-24T00:47:52;14.30;65.90
20066;DHT22;10193;48.884;9.182;2023-04-24T00:50:19;14.30;65.80
20066;DHT22;10193;48.884;9.182;2023-04-24T00:52:47;14.40;65.90
20066;DHT22;10193;48.884;9.182;2023-04-24T00:55:13;14.40;65.80
20066;DHT22;10193;48.884;9.182;2023-04-24T00:57:40;14.30;65.70
20066;DHT22;10193;48.884;9.182;2023-04-24T01:00:07;14.40;65.80
20066;DHT22;10193;48.884;9.182;2023-04-24T01:02:38;14.40;65.80
20066;DHT22;10193;48.884;9.182;2023-04-24T01:05:11;14.40;65.80
20066;DHT22;10193;48.884;9.182;2023-04-24T01:07:38;14.40;65.80
20066;DHT22;10193;48.884;9.182;2023-04-24T01:10:07;14.40;65.70
20066;DHT22;10193;48.884;9.182;2023-04-24T01:12:34;14.40;65.80
20066;DHT22;10193;48.884;9.182;2023-04-24T01:15:01;14.40;66.60
20066;DHT22;10193;48.884;9.182;2023-04-24T01:17:28;14.40;65.70
20066;DHT22;10193;48.884;9.182;2023-04-24T01:19:55;14.40;65.70
20066;DHT22;10193;48.884;9.182;2023-04-24T01:22:23;14.40;65.70
20066;DHT22;10193;48.884;9.182;2023-04-24T01:24:51;14.40;65.60
20066;DHT22;10193;48.884;9.182;2023-04-24T01:27:18;14.50;65.60
20066;DHT22;10193;48.884;9.182;2023-04-24T01:29:45;14.40;65.50
20066;DHT22;10193;48.884;9.182;2023-04-24T01:32:13;14.40;65.40
20066;DHT22;10193;48.884;9.182;2023-04-24T01:34:40;14.40;65.30
20066;DHT22;10193;48.884;9.182;2023-04-24T01:37:07;14.40;65.20
20066;DHT22;10193;48.884;9.182;2023-04-24T01:39:35;14.40;65.10
20066;DHT22;10193;48.884;9.182;2023-04-24T01:42:01;14.40;65.10
20066;DHT22;10193;48.884;9.182;2023-04-24T01:44:28;14.40;65.10
20066;DHT22;10193;48.884;9.182;2023-04-24T01:46:55;14.40;65.00
20066;DHT22;10193;48.884;9.182;2023-04-24T01:49:22;14.30;64.90
20066;DHT22;10193;48.884;9.182;2023-04-24T01:51:49;14.30;64.90
20066;DHT22;10193;48.884;9.182;2023-04-24T01:54:15;14.30;64.90
20066;DHT22;10193;48.884;9.182;2023-04-24T01:56:43;14.30;65.00
20066;DHT22;10193;48.884;9.182;2023-04-24T01:59:11;14.30;65.00
20066;DHT22;10193;48.884;9.182;2023-04-24T02:01:38;14.20;65.70
20066;DHT22;10193;48.884;9.182;2023-04-24T02:04:06;14.20;65.70
20066;DHT22;10193;48.884;9.182;2023-04-24T02:06:33;14.20;65.00
20066;DHT22;10193;48.884;9.182;2023-04-24T02:09:00;14.20;65.00
20066;DHT22;10193;48.884;9.182;2023-04-24T02:11:27;14.20;65.00
20066;DHT22;10193;48.884;9.182;2023-04-24T02:13:55;14.10;65.00
20066;DHT22;10193;48.884;9.182;2023-04-24T02:16:21;14.10;65.00
20066;DHT22;10193;48.884;9.182;2023-04-24T02:18:48;14.10;65.20
20066;DHT22;10193;48.884;9.182;2023-04-24T02:21:15;14.10;65.30
20066;DHT22;10193;48.884;9.182;2023-04-24T02:23:41;14.10;65.40
20066;DHT22;10193;48.884;9.182;2023-04-24T02:26:08;14.00;65.40
20066;DHT22;10193;48.884;9.182;2023-04-24T02:28:35;14.00;65.60
20066;DHT22;10193;48.884;9.182;2023-04-24T02:31:03;14.00;65.70
20066;DHT22;10193;48.884;9.182;2023-04-24T02:33:30;14.00;65.80
20066;DHT22;10193;48.884;9.182;2023-04-24T02:35:57;14.10;66.00
20066;DHT22;10193;48.884;9.182;2023-04-24T02:38:23;14.10;66.10
20066;DHT22;10193;48.884;9.182;2023-04-24T02:40:50;14.10;66.20
20066;DHT22;10193;48.884;9.182;2023-04-24T02:43:17;14.10;66.30
20066;DHT22;10193;48.884;9.182;2023-04-24T02:45:44;14.10;66.40
20066;DHT22;10193;48.884;9.182;2023-04-24T02:48:12;14.10;66.50
20066;DHT22;10193;48.884;9.182;2023-04-24T02:50:38;14.10;66.50
20066;DHT22;10193;48.884;9.182;2023-04-24T02:53:05;14.10;66.60
20066;DHT22;10193;48.884;9.182;2023-04-24T02:55:32;14.10;66.60
20066;DHT22;10193;48.884;9.182;2023-04-24T02:57:59;14.10;66.70
20066;DHT22;10193;48.884;9.182;2023-04-24T03:00:25;14.10;66.90
20066;DHT22;10193;48.884;9.182;2023-04-24T03:02:52;14.00;66.80
20066;DHT22;10193;48.884;9.182;2023-04-24T03:05:20;14.00;66.80
20066;DHT22;10193;48.884;9.182;2023-04-24T03:07:47;14.00;66.80
20066;DHT22;10193;48.884;9.182;2023-04-24T03:10:13;14.00;66.90
20066;DHT22;10193;48.884;9.182;2023-04-24T03:12:40;13.90;67.00
20066;DHT22;10193;48.884;9.182;2023-04-24T03:15:08;13.90;67.00
20066;DHT22;10193;48.884;9.182;2023-04-24T03:17:35;13.90;67.20
20066;DHT22;10193;48.884;9.182;2023-04-24T03:20:02;13.80;67.10
20066;DHT22;10193;48.884;9.182;2023-04-24T03:22:32;13.80;67.00
20066;DHT22;10193;48.884;9.182;2023-04-24T03:24:59;13.80;67.10
20066;DHT22;10193;48.884;9.182;2023-04-24T03:27:25;13.70;67.00
20066;DHT22;10193;48.884;9.182;2023-04-24T03:29:52;13.70;67.20
20066;DHT22;10193;48.884;9.182;2023-04-24T03:32:20;13.70;67.30
20066;DHT22;10193;48.884;9.182;2023-04-24T03:34:47;13.70;67.40
20066;DHT22;10193;48.884;9.182;2023-04-24T03:37:14;13.60;67.40
20066;DHT22;10193;48.884;9.182;2023-04-24T03:39:42;13.60;67.40
20066;DHT22;10193;48.884;9.182;2023-04-24T03:42:08;13.60;67.50
20066;DHT22;10193;48.884;9.182;2023-04-24T03:44:35;13.50;67.50
20066;DHT22;10193;48.884;9.182;2023-04-24T03:47:03;13.50;67.50
20066;DHT22;10193;48.884;9.182;2023-04-24T03:49:30;13.50;67.60
20066;DHT22;10193;48.884;9.182;2023-04-24T03:51:56;13.50;67.60
20066;DHT22;10193;48.884;9.182;2023-04-24T03:54:23;13.50;67.70
20066;DHT22;10193;48.884;9.182;2023-04-24T03:56:51;13.40;67.70
20066;DHT22;10193;48.884;9.182;2023-04-24T03:59:18;13.40;67.80
20066;DHT22;10193;48.884;9.182;2023-04-24T04:01:44;13.40;67.90
20066;DHT22;10193;48.884;9.182;2023-04-24T04:04:11;13.40;68.00
20066;DHT22;10193;48.884;9.182;2023-04-24T04:06:38;13.40;68.20
20066;DHT22;10193;48.884;9.182;2023-04-24T04:09:05;13.30;68.30
20066;DHT22;10193;48.884;9.182;2023-04-24T04:11:32;13.30;68.50
20066;DHT22;10193;48.884;9.182;2023-04-24T04:14:00;13.30;68.70
20066;DHT22;10193;48.884;9.182;2023-04-24T04:16:27;13.30;68.80
20066;DHT22;10193;48.884;9.182;2023-04-24T04:18:54;13.40;69.90
20066;DHT22;10193;48.884;9.182;2023-04-24T04:21:20;13.40;69.10
20066;DHT22;10193;48.884;9.182;2023-04-24T04:23:47;13.40;69.30
20066;DHT22;10193;48.884;9.182;2023-04-24T04:26:14;13.40;69.00
20066;DHT22;10193;48.884;9.182;2023-04-24T04:28:41;13.40;68.10
20066;DHT22;10193;48.884;9.182;2023-04-24T04:31:11;13.30;66.90
20066;DHT22;10193;48.884;9.182;2023-04-24T04:33:38;13.10;66.50
20066;DHT22;10193;48.884;9.182;2023-04-24T04:36:05;13.00;66.80
20066;DHT22;10193;48.884;9.182;2023-04-24T04:38:32;12.80;67.00
20066;DHT22;10193;48.884;9.182;2023-04-24T04:40:59;12.70;67.70
20066;DHT22;10193;48.884;9.182;2023-04-24T04:43:25;12.60;68.40
20066;DHT22;10193;48.884;9.182;2023-04-24T04:45:52;12.50;69.80
20066;DHT22;10193;48.884;9.182;2023-04-24T04:48:21;12.40;69.10
20066;DHT22;10193;48.884;9.182;2023-04-24T04:50:48;12.30;69.10
20066;DHT22;10193;48.884;9.182;2023-04-24T04:53:15;12.30;69.30
20066;DHT22;10193;48.884;9.182;2023-04-24T04:55:41;12.20;69.40
20066;DHT22;10193;48.884;9.182;2023-04-24T04:58:08;12.10;69.60
20066;DHT22;10193;48.884;9.182;2023-04-24T05:00:35;12.10;70.00
20066;DHT22;10193;48.884;9.182;2023-04-24T05:03:03;12.00;70.10
20066;DHT22;10193;48.884;9.182;2023-04-24T05:05:31;12.00;70.60
20066;DHT22;10193;48.884;9.182;2023-04-24T05:07:58;12.00;71.00
20066;DHT22;10193;48.884;9.182;2023-04-24T05:10:25;12.00;71.20
20066;DHT22;10193;48.884;9.182;2023-04-24T05:12:51;12.00;71.50
20066;DHT22;10193;48.884;9.182;2023-04-24T05:15:18;12.00;71.80
20066;DHT22;10193;48.884;9.182;2023-04-24T05:17:44;12.00;72.10
20066;DHT22;10193;48.884;9.182;2023-04-24T05:20:11;12.00;72.50
20066;DHT22;10193;48.884;9.182;2023-04-24T05:22:39;12.00;72.70
20066;DHT22;10193;48.884;9.182;2023-04-24T05:25:06;12.00;72.90
20066;DHT22;10193;48.884;9.182;2023-04-24T05:27:33;12.00;73.10
20066;DHT22;10193;48.884;9.182;2023-04-24T05:30:00;12.00;73.10
20066;DHT22;10193;48.884;9.182;2023-04-24T05:32:27;12.10;73.20
20066;DHT22;10193;48.884;9.182;2023-04-24T05:34:53;12.10;73.10
20066;DHT22;10193;48.884;9.182;2023-04-24T05:37:20;12.10;73.10
20066;DHT22;10193;48.884;9.182;2023-04-24T05:39:48;12.10;73.30
20066;DHT22;10193;48.884;9.182;2023-04-24T05:42:15;12.10;73.30
20066;DHT22;10193;48.884;9.182;2023-04-24T05:44:42;12.20;73.40
20066;DHT22;10193;48.884;9.182;2023-04-24T05:47:09;12.20;73.40
20066;DHT22;10193;48.884;9.182;2023-04-24T05:49:35;12.20;73.30
20066;DHT22;10193;48.884;9.182;2023-04-24T05:52:02;12.20;73.20
20066;DHT22;10193;48.884;9.182;2023-04-24T05:54:30;12.20;73.10
20066;DHT22;10193;48.884;9.182;2023-04-24T05:56:58;12.20;73.30
20066;DHT22;10193;48.884;9.182;2023-04-24T05:59:26;12.20;73.50
20066;DHT22;10193;48.884;9.182;2023-04-24T06:01:53;12.20;74.80
20066;DHT22;10193;48.884;9.182;2023-04-24T06:04:20;12.40;76.30
20066;DHT22;10193;48.884;9.182;2023-04-24T06:06:47;12.60;76.80
20066;DHT22;10193;48.884;9.182;2023-04-24T06:09:16;12.80;76.50
20066;DHT22;10193;48.884;9.182;2023-04-24T06:11:43;12.90;75.70
20066;DHT22;10193;48.884;9.182;2023-04-24T06:14:11;13.10;74.90
20066;DHT22;10193;48.884;9.182;2023-04-24T06:16:37;13.20;74.00
20066;DHT22;10193;48.884;9.182;2023-04-24T06:19:05;13.20;73.50
20066;DHT22;10193;48.884;9.182;2023-04-24T06:21:31;13.20;73.30
20066;DHT22;10193;48.884;9.182;2023-04-24T06:23:58;13.20;74.10
20066;DHT22;10193;48.884;9.182;2023-04-24T06:26:25;13.30;75.20
20066;DHT22;10193;48.884;9.182;2023-04-24T06:28:52;13.40;75.70
20066;DHT22;10193;48.884;9.182;2023-04-24T06:31:21;13.60;75.70
20066;DHT22;10193;48.884;9.182;2023-04-24T06:33:48;13.80;75.70
20066;DHT22;10193;48.884;9.182;2023-04-24T06:36:15;13.90;75.80
20066;DHT22;10193;48.884;9.182;2023-04-24T06:38:42;14.10;75.70
20066;DHT22;10193;48.884;9.182;2023-04-24T06:41:09;14.20;75.60
20066;DHT22;10193;48.884;9.182;2023-04-24T06:43:36;14.30;75.30
20066;DHT22;10193;48.884;9.182;2023-04-24T06:46:03;14.40;74.90
20066;DHT22;10193;48.884;9.182;2023-04-24T06:48:31;14.50;74.40
20066;DHT22;10193;48.884;9.182;2023-04-24T06:50:58;14.50;73.80
20066;DHT22;10193;48.884;9.182;2023-04-24T06:53:24;14.50;73.40
20066;DHT22;10193;48.884;9.182;2023-04-24T06:55:51;14.50;73.30
20066;DHT22;10193;48.884;9.182;2023-04-24T06:58:18;14.50;73.40
20066;DHT22;10193;48.884;9.182;2023-04-24T07:00:44;14.50;74.30
20066;DHT22;10193;48.884;9.182;2023-04-24T07:03:11;14.50;74.60
20066;DHT22;10193;48.884;9.182;2023-04-24T07:05:39;14.70;75.60
20066;DHT22;10193;48.884;9.182;2023-04-24T07:08:07;14.90;76.70
20066;DHT22;10193;48.884;9.182;2023-04-24T07:10:36;15.20;77.20
20066;DHT22;10193;48.884;9.182;2023-04-24T07:13:03;15.50;77.40
20066;DHT22;10193;48.884;9.182;2023-04-24T07:15:30;15.70;77.00
20066;DHT22;10193;48.884;9.182;2023-04-24T07:17:57;16.00;76.00
20066;DHT22;10193;48.884;9.182;2023-04-24T07:20:24;16.10;74.40
20066;DHT22;10193;48.884;9.182;2023-04-24T07:22:52;16.30;73.40
20066;DHT22;10193;48.884;9.182;2023-04-24T07:25:20;16.30;72.20
20066;DHT22;10193;48.884;9.182;2023-04-24T07:27:46;16.20;71.30
20066;DHT22;10193;48.884;9.182;2023-04-24T07:30:14;16.10;70.40
20066;DHT22;10193;48.884;9.182;2023-04-24T07:32:41;16.00;70.00
20066;DHT22;10193;48.884;9.182;2023-04-24T07:35:08;15.90;70.30
20066;DHT22;10193;48.884;9.182;2023-04-24T07:37:35;15.80;70.80
20066;DHT22;10193;48.884;9.182;2023-04-24T07:40:05;15.70;70.90
20066;DHT22;10193;48.884;9.182;2023-04-24T07:42:31;15.70;71.70
20066;DHT22;10193;48.884;9.182;2023-04-24T07:44:59;15.70;71.80
20066;DHT22;10193;48.884;9.182;2023-04-24T07:47:26;15.70;71.40
20066;DHT22;10193;48.884;9.182;2023-04-24T07:49:53;15.60;70.80
20066;DHT22;10193;48.884;9.182;2023-04-24T07:52:19;15.60;70.30
20066;DHT22;10193;48.884;9.182;2023-04-24T07:54:46;15.60;70.60
20066;DHT22;10193;48.884;9.182;2023-04-24T07:57:14;15.60;71.00
20066;DHT22;10193;48.884;9.182;2023-04-24T07:59:41;15.60;70.80
20066;DHT22;10193;48.884;9.182;2023-04-24T08:02:07;15.60;70.50
20066;DHT22;10193;48.884;9.182;2023-04-24T08:04:35;15.60;70.50
20066;DHT22;10193;48.884;9.182;2023-04-24T08:07:01;15.60;69.20
20066;DHT22;10193;48.884;9.182;2023-04-24T08:09:28;15.50;69.00
20066;DHT22;10193;48.884;9.182;2023-04-24T08:11:55;15.50;68.70
20066;DHT22;10193;48.884;9.182;2023-04-24T08:14:23;15.50;68.00
20066;DHT22;10193;48.884;9.182;2023-04-24T08:16:49;15.40;67.80
20066;DHT22;10193;48.884;9.182;2023-04-24T08:19:16;15.30;67.70
20066;DHT22;10193;48.884;9.182;2023-04-24T08:21:43;15.20;68.00
20066;DHT22;10193;48.884;9.182;2023-04-24T08:24:09;15.20;67.90
20066;DHT22;10193;48.884;9.182;2023-04-24T08:26:36;15.10;67.50
20066;DHT22;10193;48.884;9.182;2023-04-24T08:29:03;15.10;67.20
20066;DHT22;10193;48.884;9.182;2023-04-24T08:31:31;15.00;66.80
20066;DHT22;10193;48.884;9.182;2023-04-24T08:33:57;15.00;66.90
20066;DHT22;10193;48.884;9.182;2023-04-24T08:36:25;14.90;66.90
20066;DHT22;10193;48.884;9.182;2023-04-24T08:38:52;14.90;66.60
20066;DHT22;10193;48.884;9.182;2023-04-24T08:41:19;14.90;66.70
20066;DHT22;10193;48.884;9.182;2023-04-24T08:43:46;14.90;65.30
20066;DHT22;10193;48.884;9.182;2023-04-24T08:46:15;14.90;65.60
20066;DHT22;10193;48.884;9.182;2023-04-24T08:48:44;14.90;65.50
20066;DHT22;10193;48.884;9.182;2023-04-24T08:51:11;14.90;66.00
20066;DHT22;10193;48.884;9.182;2023-04-24T08:53:40;14.90;66.70
20066;DHT22;10193;48.884;9.182;2023-04-24T08:56:07;14.90;67.10
20066;DHT22;10193;48.884;9.182;2023-04-24T08:58:34;15.00;67.30
20066;DHT22;10193;48.884;9.182;2023-04-24T09:01:01;15.00;66.80
20066;DHT22;10193;48.884;9.182;2023-04-24T09:03:29;15.10;67.10
20066;DHT22;10193;48.884;9.182;2023-04-24T09:05:58;15.20;67.20
20066;DHT22;10193;48.884;9.182;2023-04-24T09:08:25;15.30;67.00
20066;DHT22;10193;48.884;9.182;2023-04-24T09:10:52;15.30;67.10
20066;DHT22;10193;48.884;9.182;2023-04-24T09:13:19;15.40;67.30
20066;DHT22;10193;48.884;9.182;2023-04-24T09:15:46;15.50;67.50
20066;DHT22;10193;48.884;9.182;2023-04-24T09:18:13;15.50;67.70
20066;DHT22;10193;48.884;9.182;2023-04-24T09:20:59;15.60;67.20
20066;DHT22;10193;48.884;9.182;2023-04-24T09:23:27;15.60;65.30
20066;DHT22;10193;48.884;9.182;2023-04-24T09:25:55;15.70;66.10
20066;DHT22;10193;48.884;9.182;2023-04-24T09:28:25;15.70;65.50
20066;DHT22;10193;48.884;9.182;2023-04-24T09:31:03;15.70;64.80
20066;DHT22;10193;48.884;9.182;2023-04-24T09:33:30;15.60;63.70
20066;DHT22;10193;48.884;9.182;2023-04-24T09:35:56;15.60;64.50
20066;DHT22;10193;48.884;9.182;2023-04-24T09:38:32;15.50;64.40
20066;DHT22;10193;48.884;9.182;2023-04-24T09:41:00;15.50;64.40
20066;DHT22;10193;48.884;9.182;2023-04-24T09:43:28;15.40;65.10
20066;DHT22;10193;48.884;9.182;2023-04-24T09:45:56;15.40;65.90
20066;DHT22;10193;48.884;9.182;2023-04-24T09:48:30;15.50;66.90
20066;DHT22;10193;48.884;9.182;2023-04-24T09:50:57;15.60;66.70
20066;DHT22;10193;48.884;9.182;2023-04-24T09:53:24;15.70;67.10
20066;DHT22;10193;48.884;9.182;2023-04-24T09:55:52;15.70;66.60
20066;DHT22;10193;48.884;9.182;2023-04-24T09:58:24;15.80;65.80
20066;DHT22;10193;48.884;9.182;2023-04-24T10:00:53;15.80;65.10
20066;DHT22;10193;48.884;9.182;2023-04-24T10:03:20;15.80;64.20
20066;DHT22;10193;48.884;9.182;2023-04-24T10:05:47;15.80;64.30
20066;DHT22;10193;48.884;9.182;2023-04-24T10:08:14;15.80;64.90
20066;DHT22;10193;48.884;9.182;2023-04-24T10:10:42;15.80;65.60
20066;DHT22;10193;48.884;9.182;2023-04-24T10:13:12;15.80;65.10
20066;DHT22;10193;48.884;9.182;2023-04-24T10:15:40;15.90;64.50
20066;DHT22;10193;48.884;9.182;2023-04-24T10:18:08;15.90;64.60
20066;DHT22;10193;48.884;9.182;2023-04-24T10:20:36;15.90;64.50
20066;DHT22;10193;48.884;9.182;2023-04-24T10:23:03;15.90;63.90
20066;DHT22;10193;48.884;9.182;2023-04-24T10:25:31;15.90;63.70
20066;DHT22;10193;48.884;9.182;2023-04-24T10:27:59;15.80;63.20
20066;DHT22;10193;48.884;9.182;2023-04-24T10:30:29;15.80;63.10
20066;DHT22;10193;48.884;9.182;2023-04-24T10:32:56;15.80;62.90
20066;DHT22;10193;48.884;9.182;2023-04-24T10:35:23;15.70;62.70
20066;DHT22;10193;48.884;9.182;2023-04-24T10:37:56;15.60;62.50
20066;DHT22;10193;48.884;9.182;2023-04-24T10:40:26;15.50;62.00
20066;DHT22;10193;48.884;9.182;2023-04-24T10:42:53;15.50;62.20
20066;DHT22;10193;48.884;9.182;2023-04-24T10:45:21;15.40;62.20
20066;DHT22;10193;48.884;9.182;2023-04-24T10:47:56;15.40;62.30
20066;DHT22;10193;48.884;9.182;2023-04-24T10:50:24;15.30;61.10
20066;DHT22;10193;48.884;9.182;2023-04-24T10:52:51;15.20;60.50
20066;DHT22;10193;48.884;9.182;2023-04-24T10:55:41;15.10;60.50
20066;DHT22;10193;48.884;9.182;2023-04-24T10:58:08;15.00;60.70
20066;DHT22;10193;48.884;9.182;2023-04-24T11:00:37;15.00;61.50
20066;DHT22;10193;48.884;9.182;2023-04-24T11:03:06;15.00;62.10
20066;DHT22;10193;48.884;9.182;2023-04-24T11:05:53;15.00;62.90
20066;DHT22;10193;48.884;9.182;2023-04-24T11:08:23;15.10;63.00
20066;DHT22;10193;48.884;9.182;2023-04-24T11:10:56;15.20;64.40
20066;DHT22;10193;48.884;9.182;2023-04-24T11:13:23;15.40;63.60
20066;DHT22;10193;48.884;9.182;2023-04-24T11:16:12;15.50;64.30
20066;DHT22;10193;48.884;9.182;2023-04-24T11:18:42;15.60;63.40
20066;DHT22;10193;48.884;9.182;2023-04-24T11:21:11;15.70;63.70
20066;DHT22;10193;48.884;9.182;2023-04-24T11:23:38;15.80;64.10
20066;DHT22;10193;48.884;9.182;2023-04-24T11:26:12;15.80;64.00
20066;DHT22;10193;48.884;9.182;2023-04-24T11:28:45;15.90;63.70
20066;DHT22;10193;48.884;9.182;2023-04-24T11:31:45;16.10;64.40
20066;DHT22;10193;48.884;9.182;2023-04-24T11:34:16;16.20;63.20
20066;DHT22;10193;48.884;9.182;2023-04-24T11:36:44;16.30;63.70
20066;DHT22;10193;48.884;9.182;2023-04-24T11:39:11;16.40;63.60
20066;DHT22;10193;48.884;9.182;2023-04-24T11:41:38;16.40;62.70
20066;DHT22;10193;48.884;9.182;2023-04-24T11:44:06;16.50;61.80
20066;DHT22;10193;48.884;9.182;2023-04-24T11:46:33;16.40;61.80
20066;DHT22;10193;48.884;9.182;2023-04-24T11:49:00;16.40;61.70
20066;DHT22;10193;48.884;9.182;2023-04-24T11:51:28;16.40;61.30
20066;DHT22;10193;48.884;9.182;2023-04-24T11:53:55;16.40;61.10
20066;DHT22;10193;48.884;9.182;2023-04-24T11:56:23;16.40;60.80
20066;DHT22;10193;48.884;9.182;2023-04-24T11:58:52;16.30;61.00
20066;DHT22;10193;48.884;9.182;2023-04-24T12:01:19;16.30;61.50
20066;DHT22;10193;48.884;9.182;2023-04-24T12:03:47;16.30;61.80
20066;DHT22;10193;48.884;9.182;2023-04-24T12:06:16;16.30;61.50
20066;DHT22;10193;48.884;9.182;2023-04-24T12:08:47;16.30;61.40
20066;DHT22;10193;48.884;9.182;2023-04-24T12:11:15;16.30;61.00
20066;DHT22;10193;48.884;9.182;2023-04-24T12:13:43;16.30;60.70
20066;DHT22;10193;48.884;9.182;2023-04-24T12:16:09;16.30;60.80
20066;DHT22;10193;48.884;9.182;2023-04-24T12:18:41;16.30;61.00
20066;DHT22;10193;48.884;9.182;2023-04-24T12:21:18;16.30;60.70
20066;DHT22;10193;48.884;9.182;2023-04-24T12:23:47;16.20;60.10
20066;DHT22;10193;48.884;9.182;2023-04-24T12:26:16;16.30;60.70
20066;DHT22;10193;48.884;9.182;2023-04-24T12:28:46;16.20;60.20
20066;DHT22;10193;48.884;9.182;2023-04-24T12:31:13;16.20;60.70
20066;DHT22;10193;48.884;9.182;2023-04-24T12:33:40;16.10;59.90
20066;DHT22;10193;48.884;9.182;2023-04-24T12:36:10;16.00;59.90
20066;DHT22;10193;48.884;9.182;2023-04-24T12:38:37;15.90;59.80
20066;DHT22;10193;48.884;9.182;2023-04-24T12:41:09;15.90;59.70
20066;DHT22;10193;48.884;9.182;2023-04-24T12:43:36;15.80;59.40
20066;DHT22;10193;48.884;9.182;2023-04-24T12:46:03;15.70;59.10
20066;DHT22;10193;48.884;9.182;2023-04-24T12:48:30;15.60;59.00
20066;DHT22;10193;48.884;9.182;2023-04-24T12:50:57;15.50;59.50
20066;DHT22;10193;48.884;9.182;2023-04-24T12:53:27;15.50;60.00
20066;DHT22;10193;48.884;9.182;2023-04-24T12:55:54;15.50;60.30
20066;DHT22;10193;48.884;9.182;2023-04-24T12:58:22;15.50;59.80
20066;DHT22;10193;48.884;9.182;2023-04-24T13:00:49;15.50;59.80
20066;DHT22;10193;48.884;9.182;2023-04-24T13:03:17;15.50;59.70
20066;DHT22;10193;48.884;9.182;2023-04-24T13:05:44;15.40;59.70
20066;DHT22;10193;48.884;9.182;2023-04-24T13:08:10;15.40;60.00
20066;DHT22;10193;48.884;9.182;2023-04-24T13:10:38;15.40;60.10
20066;DHT22;10193;48.884;9.182;2023-04-24T13:13:05;15.40;60.60
20066;DHT22;10193;48.884;9.182;2023-04-24T13:15:34;15.40;61.20
20066;DHT22;10193;48.884;9.182;2023-04-24T13:18:00;15.40;61.30
20066;DHT22;10193;48.884;9.182;2023-04-24T13:20:27;15.50;61.50
20066;DHT22;10193;48.884;9.182;2023-04-24T13:22:54;15.50;61.60
20066;DHT22;10193;48.884;9.182;2023-04-24T13:25:20;15.50;61.60
20066;DHT22;10193;48.884;9.182;2023-04-24T13:27:48;15.50;61.20
20066;DHT22;10193;48.884;9.182;2023-04-24T13:30:16;15.60;61.20
20066;DHT22;10193;48.884;9.182;2023-04-24T13:32:44;15.50;60.60
20066;DHT22;10193;48.884;9.182;2023-04-24T13:35:10;15.60;60.30
20066;DHT22;10193;48.884;9.182;2023-04-24T13:37:37;15.50;59.90
20066;DHT22;10193;48.884;9.182;2023-04-24T13:40:05;15.50;59.90
20066;DHT22;10193;48.884;9.182;2023-04-24T13:42:32;15.50;59.80
20066;DHT22;10193;48.884;9.182;2023-04-24T13:44:59;15.50;60.40
20066;DHT22;10193;48.884;9.182;2023-04-24T13:47:26;15.50;60.90
20066;DHT22;10193;48.884;9.182;2023-04-24T13:49:54;15.60;61.20
20066;DHT22;10193;48.884;9.182;2023-04-24T13:52:20;15.60;61.00
20066;DHT22;10193;48.884;9.182;2023-04-24T13:54:47;15.70;61.20
20066;DHT22;10193;48.884;9.182;2023-04-24T13:57:14;15.70;60.70
20066;DHT22;10193;48.884;9.182;2023-04-24T13:59:42;15.70;60.40
20066;DHT22;10193;48.884;9.182;2023-04-24T14:02:08;15.70;60.20
20066;DHT22;10193;48.884;9.182;2023-04-24T14:04:35;15.70;60.30
20066;DHT22;10193;48.884;9.182;2023-04-24T14:07:03;15.70;60.40
20066;DHT22;10193;48.884;9.182;2023-04-24T14:09:30;15.70;60.70
20066;DHT22;10193;48.884;9.182;2023-04-24T14:11:56;15.70;61.00
20066;DHT22;10193;48.884;9.182;2023-04-24T14:14:23;15.70;61.10
20066;DHT22;10193;48.884;9.182;2023-04-24T14:16:50;15.80;62.00
20066;DHT22;10193;48.884;9.182;2023-04-24T14:19:17;15.80;61.10
20066;DHT22;10193;48.884;9.182;2023-04-24T14:21:43;15.90;61.20
20066;DHT22;10193;48.884;9.182;2023-04-24T14:24:11;15.90;61.10
20066;DHT22;10193;48.884;9.182;2023-04-24T14:26:38;15.90;61.10
20066;DHT22;10193;48.884;9.182;2023-04-24T14:29:05;15.90;61.30
20066;DHT22;10193;48.884;9.182;2023-04-24T14:31:31;15.90;61.50
20066;DHT22;10193;48.884;9.182;2023-04-24T14:33:58;15.90;62.20
20066;DHT22;10193;48.884;9.182;2023-04-24T14:36:25;16.00;61.30
20066;DHT22;10193;48.884;9.182;2023-04-24T14:38:52;16.00;61.20
20066;DHT22;10193;48.884;9.182;2023-04-24T14:41:20;16.00;60.80
20066;DHT22;10193;48.884;9.182;2023-04-24T14:43:46;16.00;60.70
20066;DHT22;10193;48.884;9.182;2023-04-24T14:46:13;16.10;60.70
20066;DHT22;10193;48.884;9.182;2023-04-24T14:48:40;16.10;60.80
20066;DHT22;10193;48.884;9.182;2023-04-24T14:51:06;16.00;60.30
20066;DHT22;10193;48.884;9.182;2023-04-24T14:53:33;16.00;60.40
20066;DHT22;10193;48.884;9.182;2023-04-24T14:56:00;16.10;60.30
20066;DHT22;10193;48.884;9.182;2023-04-24T14:58:29;16.10;60.70
20066;DHT22;10193;48.884;9.182;2023-04-24T15:00:55;16.10;60.30
20066;DHT22;10193;48.884;9.182;2023-04-24T15:03:22;16.10;60.10
20066;DHT22;10193;48.884;9.182;2023-04-24T15:05:49;16.10;60.00
20066;DHT22;10193;48.884;9.182;2023-04-24T15:08:16;16.10;60.10
20066;DHT22;10193;48.884;9.182;2023-04-24T15:10:43;16.10;59.80
20066;DHT22;10193;48.884;9.182;2023-04-24T15:13:10;16.20;60.00
20066;DHT22;10193;48.884;9.182;2023-04-24T15:15:38;16.20;59.90
20066;DHT22;10193;48.884;9.182;2023-04-24T15:18:05;16.20;59.40
20066;DHT22;10193;48.884;9.182;2023-04-24T15:20:33;16.10;59.10
20066;DHT22;10193;48.884;9.182;2023-04-24T15:23:00;16.10;58.90
20066;DHT22;10193;48.884;9.182;2023-04-24T15:25:27;16.10;59.10
20066;DHT22;10193;48.884;9.182;2023-04-24T15:27:54;16.00;59.10
20066;DHT22;10193;48.884;9.182;2023-04-24T15:30:21;16.00;59.10
20066;DHT22;10193;48.884;9.182;2023-04-24T15:32:49;15.90;59.10